Time;durP1;ratioP1;P1;durP2;ratioP2;P2;SDS_P1;SDS_P2;PMS_P1;PMS_P2;Temp;Humidity;BMP_temperature;BMP_pressure;BME280_temperature;BME280_humidity;BME280_pressure;Samples;Min_cycle;Max_cycle;Signal;HPM_P1;HPM_P2
2022/07/06 00:02:10;;;;;;;2.20;0.88;;;17.10;95.20;;;;;;4342684;28;9999929;-72
2022/07/06 00:04:35;;;;;;;3.10;0.90;;;17.10;95.30;;;;;;5040685;28;20425;-72
2022/07/06 00:07:01;;;;;;;1.75;0.88;;;17.00;95.50;;;;;;5043738;28;20062;-71
2022/07/06 00:09:27;;;;;;;1.35;0.80;;;17.00;95.80;;;;;;5041527;28;20100;-72
2022/07/06 00:11:52;;;;;;;4.03;1.08;;;17.00;96.10;;;;;;5041686;28;20247;-71
2022/07/06 00:14:18;;;;;;;2.75;1.00;;;16.90;96.80;;;;;;5045972;28;20111;-72
2022/07/06 00:16:44;;;;;;;1.40;0.80;;;16.90;97.40;;;;;;5033617;28;20033;-72
2022/07/06 00:19:09;;;;;;;1.70;0.80;;;16.70;97.60;;;;;;5041353;28;21158;-71
2022/07/06 00:21:35;;;;;;;1.95;1.08;;;16.60;98.60;;;;;;5043337;28;20060;-72
2022/07/06 00:24:00;;;;;;;4.95;1.00;;;16.60;98.70;;;;;;5040434;28;20029;-72
2022/07/06 00:26:26;;;;;;;3.20;1.00;;;16.50;99.90;;;;;;5041466;28;20103;-72
2022/07/06 00:28:51;;;;;;;2.53;1.35;;;16.40;99.90;;;;;;5029943;28;20029;-72
2022/07/06 00:31:17;;;;;;;5.22;1.30;;;16.40;99.90;;;;;;5042481;28;20392;-72
2022/07/06 00:33:43;;;;;;;3.10;1.10;;;16.40;99.90;;;;;;5033970;28;20065;-71
2022/07/06 00:36:08;;;;;;;3.55;1.05;;;16.30;99.90;;;;;;5035656;28;20025;-71
2022/07/06 00:38:34;;;;;;;2.25;1.00;;;16.30;99.90;;;;;;5036328;28;20040;-71
2022/07/06 00:40:59;;;;;;;4.13;1.10;;;16.40;99.90;;;;;;5024787;28;20021;-71
2022/07/06 00:43:25;;;;;;;3.03;1.30;;;16.40;99.90;;;;;;5033788;28;20022;-70
2022/07/06 00:45:51;;;;;;;2.92;1.10;;;16.40;99.90;;;;;;5045025;28;20025;-71
2022/07/06 00:48:16;;;;;;;3.05;1.00;;;16.30;99.90;;;;;;5038840;28;20051;-70
2022/07/06 00:50:42;;;;;;;1.00;0.77;;;16.30;99.90;;;;;;5045376;28;20497;-71
2022/07/06 00:53:08;;;;;;;0.98;0.80;;;16.20;99.90;;;;;;5039426;28;20013;-71
2022/07/06 00:55:40;;;;;;;2.30;0.98;;;16.20;99.90;;;;;;5041332;28;20785;-71
2022/07/06 00:58:07;;;;;;;3.85;0.95;;;16.20;99.90;;;;;;5040890;28;20146;-70
2022/07/06 01:00:33;;;;;;;2.05;0.90;;;16.10;99.90;;;;;;5040039;28;20037;-71
2022/07/06 01:02:59;;;;;;;2.03;0.90;;;16.00;99.90;;;;;;5042249;28;20083;-71
2022/07/06 01:05:25;;;;;;;1.88;1.00;;;15.90;99.90;;;;;;5040477;28;20033;-71
2022/07/06 01:07:53;;;;;;;3.67;1.20;;;15.80;99.90;;;;;;5035571;28;20392;-71
2022/07/06 01:10:20;;;;;;;1.77;0.90;;;15.80;99.90;;;;;;5030896;28;20029;-71
2022/07/06 01:12:47;;;;;;;1.33;0.90;;;15.70;99.90;;;;;;5039765;28;20029;-71
2022/07/06 01:15:20;;;;;;;2.33;1.20;;;15.70;99.90;;;;;;5041842;28;20029;-71
2022/07/06 01:17:45;;;;;;;3.17;1.10;;;15.70;99.90;;;;;;5034522;28;20032;-72
2022/07/06 01:20:19;;;;;;;1.30;1.00;;;15.70;99.90;;;;;;5030589;28;20021;-72
2022/07/06 01:22:47;;;;;;;2.03;1.10;;;15.60;99.90;;;;;;5042426;28;20488;-72
2022/07/06 01:25:13;;;;;;;1.70;1.10;;;15.50;99.90;;;;;;5041075;28;20060;-72
2022/07/06 01:27:40;;;;;;;1.88;1.20;;;;;;;;;;5033017;28;20049;-72
2022/07/06 01:30:07;;;;;;;3.00;1.33;;;;;;;;;;5031776;28;20063;-71
2022/07/06 01:32:33;;;;;;;3.00;1.30;;;;;;;;;;5039499;28;20020;-71
2022/07/06 01:34:59;;;;;;;4.63;1.52;;;15.30;99.90;;;;;;5029721;28;20045;-71
2022/07/06 01:37:25;;;;;;;7.80;1.60;;;15.30;99.90;;;;;;5044471;28;20144;-72
2022/07/06 01:39:51;;;;;;;4.97;1.30;;;15.40;99.90;;;;;;5034188;28;20943;-71
2022/07/06 01:42:17;;;;;;;3.60;1.17;;;15.50;99.90;;;;;;5040637;28;20035;-72
2022/07/06 01:44:44;;;;;;;3.38;1.60;;;15.50;99.90;;;;;;5042052;28;20385;-72
2022/07/06 01:47:10;;;;;;;3.70;1.17;;;15.50;99.90;;;;;;5039105;28;20227;-72
2022/07/06 01:49:36;;;;;;;4.07;1.60;;;15.40;99.90;;;;;;5037521;28;20029;-71
2022/07/06 01:52:02;;;;;;;3.85;1.58;;;15.40;99.90;;;;;;5040671;28;20087;-71
2022/07/06 01:54:28;;;;;;;4.63;1.33;;;;;;;;;;5036825;28;20033;-72
2022/07/06 01:56:54;;;;;;;3.28;1.40;;;;;;;;;;5039287;28;20423;-71
2022/07/06 01:59:20;;;;;;;2.90;1.40;;;;;;;;;;5034196;28;20044;-72
2022/07/06 02:01:46;;;;;;;2.50;1.60;;;;;;;;;;5040249;28;20110;-71
2022/07/06 02:04:12;;;;;;;1.70;1.15;;;;;;;;;;5041417;28;20032;-71
2022/07/06 02:06:38;;;;;;;3.17;1.50;;;;;;;;;;5039197;28;20103;-71
2022/07/06 02:09:04;;;;;;;3.95;1.55;;;;;;;;;;5042450;28;20017;-71
2022/07/06 02:11:30;;;;;;;5.00;1.60;;;;;;;;;;5040176;28;20579;-71
2022/07/06 02:13:56;;;;;;;3.00;1.33;;;;;;;;;;5038858;28;20422;-71
2022/07/06 02:16:22;;;;;;;5.20;1.70;;;;;;;;;;5038186;28;20029;-71
2022/07/06 02:18:48;;;;;;;3.50;1.30;;;;;;;;;;5044731;28;20066;-71
2022/07/06 02:21:14;;;;;;;3.78;1.25;;;;;;;;;;5040281;28;20037;-71
2022/07/06 02:23:40;;;;;;;1.52;1.30;;;;;;;;;;5043729;28;20037;-72
2022/07/06 02:26:06;;;;;;;5.43;1.80;;;;;;;;;;5041283;28;20024;-71
2022/07/06 02:28:32;;;;;;;3.33;1.60;;;;;;;;;;5041250;28;20476;-71
2022/07/06 02:30:58;;;;;;;3.92;1.35;;;;;;;;;;5039922;28;20106;-72
2022/07/06 02:33:24;;;;;;;3.22;1.38;;;;;;;;;;5036845;28;20135;-72
2022/07/06 02:35:50;;;;;;;2.15;1.40;;;;;;;;;;5041237;28;20040;-72
2022/07/06 02:38:16;;;;;;;4.82;1.83;;;;;;;;;;5035807;28;20480;-71
2022/07/06 02:40:42;;;;;;;2.75;1.50;;;;;;;;;;5047552;28;20029;-72
2022/07/06 02:43:08;;;;;;;4.40;1.50;;;;;;;;;;5038254;28;20112;-72
2022/07/06 02:45:34;;;;;;;1.92;1.38;;;;;;;;;;5038680;28;20021;-72
2022/07/06 02:48:00;;;;;;;4.75;1.60;;;;;;;;;;5037364;28;20057;-71
2022/07/06 02:50:26;;;;;;;4.20;1.70;;;;;;;;;;5035449;28;20260;-71
2022/07/06 02:52:52;;;;;;;4.88;1.75;;;;;;;;;;5038307;28;20032;-71
2022/07/06 02:55:30;;;;;;;4.68;1.60;;;;;;;;;;5039238;28;20025;-71
2022/07/06 02:57:56;;;;;;;3.78;1.52;;;;;;;;;;5034379;28;20044;-71
2022/07/06 03:00:23;;;;;;;3.70;1.65;;;;;;;;;;5041703;28;20110;-72
2022/07/06 03:02:48;;;;;;;4.85;1.98;;;;;;;;;;5043245;28;20025;-71
2022/07/06 03:05:14;;;;;;;4.72;1.80;;;;;;;;;;5039272;28;20064;-72
2022/07/06 03:07:40;;;;;;;3.10;1.60;;;;;;;;;;5043766;28;20078;-71
2022/07/06 03:10:07;;;;;;;4.70;1.65;;;;;;;;;;5040213;28;20368;-71
2022/07/06 03:12:33;;;;;;;5.22;1.92;;;;;;;;;;5037371;28;20025;-71
2022/07/06 03:14:58;;;;;;;6.82;1.70;;;;;;;;;;5041345;28;20029;-71
2022/07/06 03:17:24;;;;;;;7.97;2.00;;;;;;;;;;5039021;28;20485;-71
2022/07/06 03:19:52;;;;;;;6.93;1.70;;;;;;;;;;5039592;28;20090;-71
2022/07/06 03:22:18;;;;;;;3.45;1.63;;;;;;;;;;5041839;28;20033;-71
2022/07/06 03:24:44;;;;;;;4.30;1.60;;;;;;;;;;5039280;28;20120;-71
2022/07/06 03:27:10;;;;;;;5.88;2.10;;;;;;;;;;5042582;28;20025;-71
2022/07/06 03:29:36;;;;;;;2.90;1.50;;;;;;;;;;5037089;28;20041;-71
2022/07/06 03:32:02;;;;;;;5.32;1.30;;;;;;;;;;5036161;28;20025;-72
2022/07/06 03:34:28;;;;;;;1.88;1.23;;;;;;;;;;5001992;28;1105814;-72
2022/07/06 03:36:54;;;;;;;2.08;1.10;;;;;;;;;;5041487;28;20068;-71
2022/07/06 03:39:20;;;;;;;4.25;1.30;;;;;;;;;;5040322;28;20027;-72
2022/07/06 03:41:46;;;;;;;1.65;1.38;;;;;;;;;;5041975;28;20033;-72
2022/07/06 03:44:12;;;;;;;1.88;1.10;;;;;;;;;;5043363;28;20033;-72
2022/07/06 03:46:38;;;;;;;3.17;1.40;;;;;;;;;;5038250;28;20075;-71
2022/07/06 03:49:04;;;;;;;5.45;1.67;;;;;;;;;;5037522;28;20076;-72
2022/07/06 03:51:30;;;;;;;6.78;1.58;;;;;;;;;;5044817;28;20017;-72
2022/07/06 03:53:56;;;;;;;3.22;1.50;;;;;;;;;;5044426;28;20021;-71
2022/07/06 03:56:28;;;;;;;4.63;1.30;;;;;;;;;;5038331;28;20053;-71
2022/07/06 03:58:54;;;;;;;4.00;1.30;;;;;;;;;;5038497;28;20030;-72
2022/07/06 04:01:21;;;;;;;3.75;1.40;;;;;;;;;;5040848;28;20016;-72
2022/07/06 04:03:47;;;;;;;3.92;1.20;;;;;;;;;;5027087;28;20120;-72
2022/07/06 04:06:13;;;;;;;5.35;1.55;;;;;;;;;;5029071;28;20527;-71
2022/07/06 04:08:39;;;;;;;6.10;1.90;;;;;;;;;;5032434;28;20036;-73
2022/07/06 04:11:05;;;;;;;3.15;1.48;;;;;;;;;;5033098;28;20350;-71
2022/07/06 04:13:31;;;;;;;3.35;1.30;;;15.10;99.90;;;;;;5038508;28;20574;-71
2022/07/06 04:15:56;;;;;;;10.55;1.90;;;15.20;99.90;;;;;;5031681;28;20349;-71
2022/07/06 04:18:22;;;;;;;2.80;1.65;;;15.20;99.90;;;;;;5036771;28;20025;-71
2022/07/06 04:20:48;;;;;;;3.60;1.40;;;15.20;99.90;;;;;;5034301;28;20029;-70
2022/07/06 04:23:13;;;;;;;5.03;1.65;;;15.20;99.90;;;;;;5034073;28;20385;-71
2022/07/06 04:25:39;;;;;;;3.53;1.50;;;15.20;99.90;;;;;;5031383;28;20500;-71
2022/07/06 04:28:04;;;;;;;3.88;1.90;;;16.00;99.90;;;;;;5044354;28;20051;-71
2022/07/06 04:30:30;;;;;;;4.00;1.50;;;16.90;99.90;;;;;;5031656;28;20025;-71
2022/07/06 04:32:56;;;;;;;3.22;1.58;;;16.70;99.90;;;;;;5043694;28;20025;-72
2022/07/06 04:35:22;;;;;;;4.13;1.83;;;16.40;99.90;;;;;;5034970;28;20041;-71
2022/07/06 04:37:47;;;;;;;3.33;1.50;;;16.10;99.90;;;;;;5042617;28;20489;-71
2022/07/06 04:40:13;;;;;;;4.90;1.77;;;16.00;99.90;;;;;;5037139;28;20490;-72
2022/07/06 04:42:39;;;;;;;3.45;1.83;;;15.80;99.90;;;;;;5037722;28;20036;-71
2022/07/06 04:45:06;;;;;;;6.45;2.22;;;15.70;99.90;;;;;;5041839;28;20041;-71
2022/07/06 04:47:31;;;;;;;3.67;2.10;;;15.60;99.90;;;;;;5040756;28;20054;-72
2022/07/06 04:49:57;;;;;;;4.90;2.17;;;15.50;99.90;;;;;;5028382;28;20022;-72
2022/07/06 04:52:22;;;;;;;3.13;2.60;;;15.50;99.90;;;;;;5033375;28;20477;-71
2022/07/06 04:54:48;;;;;;;6.13;2.10;;;15.50;99.90;;;;;;5035063;28;20467;-71
2022/07/06 04:57:14;;;;;;;4.65;2.03;;;15.50;99.90;;;;;;5042050;28;20116;-71
2022/07/06 04:59:39;;;;;;;3.88;1.92;;;15.60;99.90;;;;;;5037876;28;20055;-71
2022/07/06 05:02:05;;;;;;;5.03;1.98;;;15.90;99.90;;;;;;5039004;28;20032;-71
2022/07/06 05:04:31;;;;;;;4.13;2.20;;;16.00;99.90;;;;;;5038744;28;21180;-72
2022/07/06 05:06:57;;;;;;;3.70;1.83;;;16.10;99.90;;;;;;5035006;28;20029;-71
2022/07/06 05:09:22;;;;;;;2.90;1.80;;;16.20;99.90;;;;;;5040091;28;20112;-72
2022/07/06 05:11:48;;;;;;;5.43;1.90;;;16.30;99.90;;;;;;5039828;28;20124;-71
2022/07/06 05:14:13;;;;;;;4.68;2.13;;;16.30;99.90;;;;;;5034963;28;20635;-71
2022/07/06 05:16:39;;;;;;;4.55;2.33;;;16.40;99.90;;;;;;5037287;28;20023;-72
2022/07/06 05:19:05;;;;;;;5.88;2.10;;;16.40;99.90;;;;;;5035417;28;20020;-72
2022/07/06 05:21:30;;;;;;;5.82;2.17;;;16.40;99.90;;;;;;5040740;28;20052;-71
2022/07/06 05:23:56;;;;;;;5.10;1.95;;;16.50;99.90;;;;;;5038812;28;20489;-71
2022/07/06 05:26:21;;;;;;;4.43;2.00;;;16.60;99.90;;;;;;5034069;28;20035;-71
2022/07/06 05:28:47;;;;;;;4.93;2.00;;;16.80;99.90;;;;;;5035487;28;20381;-71
2022/07/06 05:31:13;;;;;;;5.07;2.10;;;16.90;99.90;;;;;;5036513;28;20448;-71
2022/07/06 05:33:38;;;;;;;5.85;2.00;;;17.00;99.90;;;;;;5041970;28;20047;-71
2022/07/06 05:36:04;;;;;;;6.00;1.70;;;17.10;99.90;;;;;;5038853;28;20025;-71
2022/07/06 05:38:30;;;;;;;5.10;1.90;;;17.20;99.90;;;;;;5031236;28;20690;-71
2022/07/06 05:40:56;;;;;;;4.82;2.10;;;17.20;99.90;;;;;;5042315;28;20064;-71
2022/07/06 05:43:21;;;;;;;2.63;1.60;;;17.00;99.90;;;;;;5042042;28;20083;-71
2022/07/06 05:45:47;;;;;;;6.10;2.28;;;17.00;99.90;;;;;;5039515;28;20030;-71
2022/07/06 05:50:57;;;;;;;5.80;2.13;;;16.90;99.90;;;;;;5041793;28;20040;-74
2022/07/06 05:53:23;;;;;;;4.78;2.20;;;16.90;99.90;;;;;;5042975;28;20390;-74
2022/07/06 05:55:48;;;;;;;4.35;2.10;;;16.90;99.90;;;;;;5040395;28;20101;-74
2022/07/06 05:58:14;;;;;;;2.75;2.00;;;16.90;99.90;;;;;;5038352;28;20863;-73
2022/07/06 06:00:40;;;;;;;5.60;2.35;;;17.00;99.90;;;;;;5040265;28;20056;-73
2022/07/06 06:03:05;;;;;;;7.88;2.65;;;17.00;99.90;;;;;;5031439;28;20036;-74
2022/07/06 06:05:31;;;;;;;5.03;2.30;;;17.10;99.90;;;;;;5035422;28;20517;-74
2022/07/06 06:07:57;;;;;;;6.45;2.00;;;17.10;99.90;;;;;;5036829;28;20500;-73
2022/07/06 06:10:23;;;;;;;4.53;2.50;;;17.10;99.90;;;;;;5041284;28;20029;-74
2022/07/06 06:12:49;;;;;;;4.28;2.20;;;17.10;99.90;;;;;;5042299;28;20021;-73
2022/07/06 06:15:14;;;;;;;5.65;2.20;;;17.10;99.90;;;;;;5042436;28;20498;-74
2022/07/06 06:17:40;;;;;;;2.83;1.80;;;17.20;99.90;;;;;;5040054;28;20053;-73
2022/07/06 06:20:08;;;;;;;5.00;1.92;;;17.30;99.90;;;;;;5037913;28;20390;-73
2022/07/06 06:22:46;;;;;;;4.10;1.70;;;17.40;99.90;;;;;;5039019;28;20026;-73
2022/07/06 06:25:12;;;;;;;3.50;1.40;;;17.40;99.90;;;;;;5047384;28;20040;-74
2022/07/06 06:27:37;;;;;;;4.28;1.50;;;17.50;99.90;;;;;;5043881;28;20040;-73
2022/07/06 06:30:03;;;;;;;5.10;1.35;;;17.50;99.90;;;;;;5041680;28;20026;-74
2022/07/06 06:32:29;;;;;;;5.05;1.40;;;17.50;99.90;;;;;;5045669;28;20404;-74
2022/07/06 06:34:54;;;;;;;4.20;1.48;;;17.60;99.90;;;;;;5037642;28;20038;-73
2022/07/06 06:37:20;;;;;;;3.03;1.25;;;17.70;99.90;;;;;;5035081;28;20025;-73
2022/07/06 06:39:46;;;;;;;3.65;1.30;;;17.70;99.90;;;;;;5040525;28;20040;-73
2022/07/06 06:42:11;;;;;;;4.05;1.10;;;18.00;99.90;;;;;;5042168;28;20029;-73
2022/07/06 06:44:37;;;;;;;1.95;1.17;;;18.20;99.90;;;;;;5047879;28;20488;-73
2022/07/06 06:47:02;;;;;;;2.67;1.15;;;18.40;99.90;;;;;;5052335;28;20064;-72
2022/07/06 06:49:28;;;;;;;2.78;0.82;;;18.80;99.90;;;;;;5044438;28;20036;-73
2022/07/06 06:51:54;;;;;;;4.30;0.80;;;19.10;99.90;;;;;;5046438;28;20060;-73
2022/07/06 06:54:19;;;;;;;5.70;1.10;;;19.20;99.90;;;;;;5033615;28;20468;-73
2022/07/06 06:56:45;;;;;;;6.15;0.82;;;19.30;99.90;;;;;;5043322;28;20028;-73
2022/07/06 06:59:10;;;;;;;3.42;1.00;;;19.30;99.70;;;;;;5067122;28;20060;-73
2022/07/06 07:01:36;;;;;;;3.03;0.85;;;19.10;98.70;;;;;;5046137;28;20040;-73
2022/07/06 07:04:01;;;;;;;6.32;1.20;;;18.90;98.50;;;;;;5032373;28;20060;-73
2022/07/06 07:06:27;;;;;;;3.90;1.00;;;18.80;99.20;;;;;;5041706;28;20021;-73
2022/07/06 07:08:52;;;;;;;2.97;1.00;;;18.70;98.20;;;;;;5037620;28;20048;-73
2022/07/06 07:11:18;;;;;;;2.60;1.10;;;18.60;98.70;;;;;;5035601;28;20382;-73
2022/07/06 07:13:44;;;;;;;2.83;1.20;;;18.50;99.00;;;;;;5027444;28;20637;-73
2022/07/06 07:16:09;;;;;;;3.75;1.30;;;18.40;98.80;;;;;;5024969;28;20032;-73
2022/07/06 07:18:35;;;;;;;4.22;1.20;;;18.20;98.90;;;;;;5029320;28;20036;-73
2022/07/06 07:21:00;;;;;;;4.63;1.20;;;18.10;99.80;;;;;;5033580;28;20021;-73
2022/07/06 07:23:26;;;;;;;3.08;1.00;;;18.10;99.90;;;;;;5038914;28;20022;-74
2022/07/06 07:25:52;;;;;;;3.40;1.15;;;17.90;95.50;;;;;;5038411;28;20029;-74
2022/07/06 07:28:18;;;;;;;5.82;1.40;;;17.80;95.60;;;;;;5039091;28;20084;-74
2022/07/06 07:30:43;;;;;;;6.82;1.65;;;17.80;95.70;;;;;;5035640;28;20276;-73
2022/07/06 07:33:09;;;;;;;5.97;1.45;;;17.80;95.40;;;;;;5046129;28;20152;-74
2022/07/06 07:35:34;;;;;;;4.03;1.60;;;17.80;93.60;;;;;;5037095;28;20048;-73
2022/07/06 07:38:00;;;;;;;6.45;1.30;;;17.90;93.20;;;;;;5046967;28;20036;-73
2022/07/06 07:40:27;;;;;;;3.75;1.45;;;18.10;92.30;;;;;;5031598;28;20032;-74
2022/07/06 07:42:52;;;;;;;3.03;1.30;;;18.40;92.40;;;;;;5043302;28;20079;-74
2022/07/06 07:45:18;;;;;;;3.33;1.30;;;18.60;91.00;;;;;;5042055;28;20021;-74
2022/07/06 07:47:43;;;;;;;2.90;1.30;;;19.00;90.90;;;;;;5042317;28;20025;-73
2022/07/06 07:50:09;;;;;;;1.98;1.10;;;19.40;90.80;;;;;;5040618;28;20048;-73
2022/07/06 07:52:35;;;;;;;4.75;1.63;;;19.70;89.60;;;;;;5036673;28;20060;-73
2022/07/06 07:55:01;;;;;;;4.85;1.30;;;20.00;89.00;;;;;;5043857;28;20083;-73
2022/07/06 07:57:26;;;;;;;3.08;1.20;;;20.30;84.30;;;;;;5044661;28;20025;-73
2022/07/06 07:59:52;;;;;;;2.35;1.23;;;;;;;;;;5041139;28;20068;-73
2022/07/06 08:02:18;;;;;;;3.45;1.05;;;20.80;82.30;;;;;;5038816;28;20031;-73
2022/07/06 08:04:43;;;;;;;3.45;1.33;;;20.90;80.80;;;;;;5041581;28;20033;-73
2022/07/06 08:07:09;;;;;;;2.97;0.80;;;20.80;79.90;;;;;;5048175;28;20333;-73
2022/07/06 08:09:34;;;;;;;2.53;0.95;;;20.70;77.20;;;;;;5037745;28;20052;-74
2022/07/06 08:12:00;;;;;;;3.38;1.00;;;20.60;77.80;;;;;;5042801;28;20124;-73
2022/07/06 08:14:26;;;;;;;3.30;1.02;;;20.50;77.00;;;;;;5043568;28;20072;-73
2022/07/06 08:16:51;;;;;;;5.05;1.10;;;20.30;77.40;;;;;;5039253;28;20036;-73
2022/07/06 08:19:17;;;;;;;2.80;1.05;;;20.20;78.90;;;;;;5030183;28;20033;-73
2022/07/06 08:21:43;;;;;;;2.40;0.88;;;20.00;77.00;;;;;;5045442;28;20512;-73
2022/07/06 08:24:10;;;;;;;1.77;1.05;;;19.80;76.70;;;;;;5045086;28;20021;-73
2022/07/06 08:26:36;;;;;;;2.42;0.98;;;19.70;75.70;;;;;;5043711;28;20387;-72
2022/07/06 08:29:01;;;;;;;1.85;0.88;;;19.70;74.10;;;;;;5040646;28;20044;-73
2022/07/06 08:31:27;;;;;;;2.63;0.90;;;20.10;72.20;;;;;;5031760;28;20024;-74
2022/07/06 08:33:54;;;;;;;1.42;0.70;;;20.50;70.70;;;;;;5034694;28;20504;-74
2022/07/06 08:36:23;;;;;;;2.00;0.77;;;20.70;70.40;;;;;;5043048;28;20506;-74
2022/07/06 08:38:49;;;;;;;1.77;0.70;;;21.10;69.40;;;;;;5055668;28;20035;-74
2022/07/06 08:41:16;;;;;;;1.08;0.60;;;21.50;63.50;;;;;;5046671;28;20498;-73
2022/07/06 08:43:42;;;;;;;1.95;0.80;;;21.70;63.20;;;;;;5038692;28;20111;-74
2022/07/06 08:46:08;;;;;;;3.83;0.65;;;22.20;63.80;;;;;;5034272;28;20031;-73
2022/07/06 08:48:40;;;;;;;1.45;0.50;;;22.40;64.60;;;;;;5044765;28;20025;-74
2022/07/06 08:51:05;;;;;;;3.50;0.70;;;21.90;64.90;;;;;;5045459;28;20037;-73
2022/07/06 08:53:31;;;;;;;2.30;0.85;;;21.20;65.60;;;;;;5043780;28;20017;-73
2022/07/06 08:55:57;;;;;;;3.78;0.60;;;20.80;68.80;;;;;;5047443;28;20378;-74
2022/07/06 08:58:24;;;;;;;3.03;0.80;;;21.00;70.20;;;;;;5043259;28;20080;-73
2022/07/06 09:00:50;;;;;;;2.28;0.60;;;21.50;70.10;;;;;;5046213;28;20104;-74
2022/07/06 09:03:16;;;;;;;2.10;0.85;;;22.00;69.60;;;;;;5045674;28;20096;-73
2022/07/06 09:05:46;;;;;;;2.60;0.55;;;22.20;68.10;;;;;;5053967;28;20034;-73
2022/07/06 09:08:12;;;;;;;4.93;0.80;;;22.30;67.20;;;;;;5060810;28;20497;-73
2022/07/06 09:10:37;;;;;;;1.60;0.50;;;22.10;66.70;;;;;;5040043;28;20052;-73
2022/07/06 09:13:08;;;;;;;5.05;0.60;;;21.80;67.80;;;;;;5051960;28;20385;-73
2022/07/06 09:15:36;;;;;;;2.72;0.50;;;21.50;67.70;;;;;;5037050;28;20489;-73
2022/07/06 09:18:03;;;;;;;2.58;0.80;;;21.20;68.50;;;;;;5047253;28;20032;-73
2022/07/06 09:20:29;;;;;;;2.15;0.50;;;21.10;67.60;;;;;;5034462;28;20060;-73
2022/07/06 09:23:04;;;;;;;1.50;0.52;;;20.90;67.20;;;;;;5041517;28;20188;-73
2022/07/06 09:25:31;;;;;;;3.65;0.73;;;21.00;70.10;;;;;;5044089;28;20033;-73
2022/07/06 09:27:58;;;;;;;3.78;0.70;;;21.30;72.10;;;;;;5048526;28;20031;-73
2022/07/06 09:30:26;;;;;;;1.35;0.50;;;21.70;70.80;;;;;;5036997;28;20034;-73
2022/07/06 09:32:54;;;;;;;2.47;0.55;;;21.80;69.90;;;;;;5027194;28;20075;-73
2022/07/06 09:35:30;;;;;;;2.33;0.60;;;21.70;69.20;;;;;;5041317;28;20497;-73
2022/07/06 09:38:07;;;;;;;2.63;0.47;;;21.70;68.30;;;;;;5058898;28;20028;-73
2022/07/06 09:40:38;;;;;;;1.52;0.40;;;21.90;68.40;;;;;;5042976;28;20468;-73
2022/07/06 09:43:17;;;;;;;0.95;0.30;;;22.20;66.40;;;;;;5046116;28;20021;-73
2022/07/06 09:45:54;;;;;;;2.92;0.60;;;22.30;62.70;;;;;;5043964;28;20031;-73
2022/07/06 09:48:24;;;;;;;1.48;0.50;;;22.20;62.70;;;;;;5025502;28;20046;-73
2022/07/06 09:50:58;;;;;;;1.52;0.50;;;22.00;62.00;;;;;;5044500;28;20036;-73
2022/07/06 09:53:26;;;;;;;1.58;0.40;;;21.90;62.60;;;;;;5026837;28;20363;-74
2022/07/06 09:55:54;;;;;;;2.20;0.47;;;21.90;59.80;;;;;;5046325;28;20075;-73
2022/07/06 09:58:21;;;;;;;1.65;0.40;;;21.90;62.00;;;;;;5045715;28;20131;-73
2022/07/06 10:00:47;;;;;;;1.10;0.43;;;21.90;62.10;;;;;;5031954;28;20037;-74
2022/07/06 10:03:15;;;;;;;4.13;0.50;;;21.70;60.90;;;;;;5035266;28;20029;-73
2022/07/06 10:05:42;;;;;;;0.77;0.38;;;21.50;62.40;;;;;;5062891;28;20029;-73
2022/07/06 10:08:09;;;;;;;1.73;0.30;;;21.50;61.70;;;;;;5050899;28;20028;-74
2022/07/06 10:10:37;;;;;;;2.80;0.50;;;21.60;62.20;;;;;;5046878;28;20097;-73
2022/07/06 10:13:07;;;;;;;0.80;0.40;;;22.00;61.30;;;;;;5043201;28;20433;-73
2022/07/06 10:15:34;;;;;;;3.20;0.30;;;22.20;59.60;;;;;;5048542;28;20086;-74
2022/07/06 10:18:03;;;;;;;1.98;0.40;;;22.20;61.00;;;;;;5045640;28;20096;-73
2022/07/06 10:20:31;;;;;;;1.85;0.60;;;22.40;61.60;;;;;;5041548;28;20476;-73
2022/07/06 10:23:00;;;;;;;1.20;0.40;;;22.50;60.60;;;;;;5037942;28;20041;-73
2022/07/06 10:25:26;;;;;;;1.02;0.30;;;22.50;60.00;;;;;;5055481;28;20051;-73
2022/07/06 10:27:53;;;;;;;2.20;0.50;;;22.30;60.20;;;;;;5060213;28;20486;-73
2022/07/06 10:30:20;;;;;;;2.10;0.52;;;22.10;60.80;;;;;;5044818;28;20033;-73
2022/07/06 10:32:47;;;;;;;3.92;0.45;;;21.80;61.50;;;;;;5050550;28;20405;-72
2022/07/06 10:35:14;;;;;;;3.45;0.40;;;21.70;62.70;;;;;;5042349;28;20505;-72
2022/07/06 10:37:41;;;;;;;3.90;0.60;;;21.60;63.90;;;;;;5034135;28;20481;-72
2022/07/06 10:43:01;;;;;;;2.30;0.60;;;21.30;64.30;;;;;;5050031;28;20049;-72
2022/07/06 10:45:27;;;;;;;1.35;0.57;;;21.30;63.60;;;;;;5042880;28;20025;-72
2022/07/06 10:48:10;;;;;;;2.15;0.40;;;21.20;63.50;;;;;;5049788;28;20497;-72
2022/07/06 10:50:55;;;;;;;2.67;0.60;;;21.20;62.90;;;;;;5045981;28;20079;-73
2022/07/06 10:53:25;;;;;;;3.33;0.60;;;21.20;63.50;;;;;;5055425;28;20652;-73
2022/07/06 10:55:54;;;;;;;3.75;0.50;;;21.30;64.50;;;;;;5040618;28;20044;-73
2022/07/06 10:58:39;;;;;;;1.55;0.40;;;21.60;62.40;;;;;;5044318;28;20029;-73
2022/07/06 11:01:05;;;;;;;2.92;0.50;;;21.50;62.80;;;;;;5046157;28;20033;-73
2022/07/06 11:03:32;;;;;;;1.45;0.40;;;21.50;62.90;;;;;;5045725;28;20032;-73
2022/07/06 11:05:59;;;;;;;2.47;0.38;;;21.40;62.50;;;;;;5045089;28;20056;-73
2022/07/06 11:08:44;;;;;;;2.50;0.50;;;21.40;62.80;;;;;;5042115;28;20612;-72
2022/07/06 11:11:19;;;;;;;2.25;0.40;;;21.30;62.50;;;;;;5038700;28;20112;-72
2022/07/06 11:14:02;;;;;;;2.05;0.40;;;21.30;63.80;;;;;;5046272;28;20493;-73
2022/07/06 11:16:33;;;;;;;3.90;0.50;;;21.10;62.60;;;;;;5046909;28;20067;-73
2022/07/06 11:19:01;;;;;;;1.10;0.30;;;21.10;60.10;;;;;;5046075;28;20086;-73
2022/07/06 11:21:38;;;;;;;2.65;0.43;;;21.20;60.70;;;;;;5046561;28;20196;-73
2022/07/06 11:24:06;;;;;;;2.97;0.63;;;21.20;61.30;;;;;;5039578;28;20047;-73
2022/07/06 11:26:35;;;;;;;3.00;0.43;;;21.10;62.80;;;;;;5038978;28;20393;-73
2022/07/06 11:29:03;;;;;;;1.20;0.40;;;21.20;63.00;;;;;;5041562;28;20037;-73
2022/07/06 11:31:28;;;;;;;1.63;0.50;;;21.40;61.50;;;;;;5046908;28;20036;-72
2022/07/06 11:33:54;;;;;;;3.60;0.50;;;21.60;60.00;;;;;;5043871;28;20033;-72
2022/07/06 11:36:21;;;;;;;2.08;0.50;;;21.70;59.80;;;;;;5037178;28;20516;-73
2022/07/06 11:38:49;;;;;;;2.35;0.40;;;21.90;58.90;;;;;;5047693;28;20052;-72
2022/07/06 11:41:16;;;;;;;1.27;0.30;;;22.20;58.10;;;;;;5046441;28;20106;-73
2022/07/06 11:43:44;;;;;;;2.95;0.50;;;22.40;57.00;;;;;;5040114;28;20048;-73
2022/07/06 11:46:29;;;;;;;1.02;0.30;;;22.30;56.30;;;;;;5045992;28;20715;-72
2022/07/06 11:49:08;;;;;;;1.17;0.40;;;22.10;57.80;;;;;;5047123;28;20472;-72
2022/07/06 11:51:36;;;;;;;2.30;0.50;;;22.00;57.60;;;;;;5045450;28;20090;-74
2022/07/06 11:54:08;;;;;;;1.08;0.30;;;21.90;58.80;;;;;;5043235;28;20108;-75
2022/07/06 11:56:35;;;;;;;2.15;0.47;;;21.80;58.70;;;;;;4332979;28;10000823;-76
2022/07/06 11:59:00;;;;;;;2.63;0.55;;;21.70;57.90;;;;;;5034351;28;20039;-72
2022/07/06 12:01:31;;;;;;;0.77;0.30;;;21.70;58.50;;;;;;5037828;28;20724;-73
2022/07/06 12:04:01;;;;;;;1.02;0.40;;;21.70;59.00;;;;;;5037571;28;20036;-73
2022/07/06 12:06:28;;;;;;;0.85;0.40;;;21.80;58.70;;;;;;5036947;28;20493;-73
2022/07/06 12:08:58;;;;;;;3.50;0.32;;;22.00;58.10;;;;;;5034925;28;20421;-73
2022/07/06 12:11:31;;;;;;;2.03;0.30;;;22.20;58.40;;;;;;5033253;28;20103;-73
2022/07/06 12:14:02;;;;;;;0.73;0.30;;;22.70;58.60;;;;;;5034084;28;20033;-73
2022/07/06 12:16:35;;;;;;;1.92;0.40;;;23.30;56.00;;;;;;5036730;28;20045;-73
2022/07/06 12:19:02;;;;;;;;;;;23.70;53.80;;;;;;5024099;28;20070;-73
2022/07/06 12:21:28;;;;;;;0.80;0.30;;;23.90;53.50;;;;;;5030423;28;19917;-73
2022/07/06 12:23:55;;;;;;;1.40;0.30;;;24.10;53.40;;;;;;5033643;28;20043;-73
2022/07/06 12:26:26;;;;;;;0.93;0.25;;;24.50;51.60;;;;;;5031438;28;20131;-73
2022/07/06 12:29:14;;;;;;;0.90;0.30;;;24.60;51.70;;;;;;5040703;28;20544;-74
2022/07/06 12:31:47;;;;;;;1.73;0.40;;;24.90;50.90;;;;;;5039479;28;20436;-74
2022/07/06 12:34:15;;;;;;;0.88;0.35;;;25.20;49.60;;;;;;5033055;28;20052;-73
2022/07/06 12:36:51;;;;;;;0.82;0.30;;;25.30;48.80;;;;;;5038449;28;20043;-73
2022/07/06 12:39:19;;;;;;;2.67;0.50;;;25.20;49.60;;;;;;5038551;28;20118;-73
2022/07/06 12:41:49;;;;;;;2.10;0.30;;;25.30;50.00;;;;;;5037282;28;20361;-73
2022/07/06 12:44:17;;;;;;;1.17;0.30;;;25.40;48.70;;;;;;5027174;28;20101;-73
2022/07/06 12:46:43;;;;;;;0.60;0.30;;;25.30;49.00;;;;;;5047305;28;20690;-72
2022/07/06 12:49:23;;;;;;;0.65;0.30;;;25.40;48.60;;;;;;5038658;28;20142;-71
2022/07/06 12:51:51;;;;;;;4.43;0.30;;;25.20;49.30;;;;;;5025085;28;20048;-73
2022/07/06 12:54:17;;;;;;;2.33;0.30;;;25.30;49.70;;;;;;5036087;28;20079;-73
2022/07/06 12:57:13;;;;;;;2.55;0.47;;;25.40;50.40;;;;;;5040208;28;20037;-73
2022/07/06 12:59:44;;;;;;;1.88;0.45;;;25.40;49.60;;;;;;5036734;28;20029;-73
2022/07/06 13:02:20;;;;;;;3.05;0.47;;;25.40;49.90;;;;;;5036370;28;20124;-72
2022/07/06 13:05:02;;;;;;;3.88;0.40;;;25.20;49.90;;;;;;5042734;28;20055;-72
2022/07/06 13:07:35;;;;;;;1.23;0.47;;;24.80;50.40;;;;;;5032836;28;20100;-73
2022/07/06 13:10:02;;;;;;;2.17;0.30;;;24.80;50.90;;;;;;5031882;28;20025;-73
2022/07/06 13:12:28;;;;;;;4.63;0.40;;;24.90;51.50;;;;;;5032939;28;20498;-73
2022/07/06 13:14:54;;;;;;;1.40;0.30;;;24.60;50.50;;;;;;5039800;28;20069;-73